Costa Fortuna — IBNY — position and weather

sailwx.info

Track history (hours):
 
Tides and Currents Weather Stations Pressure Air Temp Water Temp Dewpoint Dewpoint Depression Visibility Wind Speed Wind Dir Waves Ship Positions

Costa Fortuna

Last reported at 2017-Mar-26 03:25 UTC. Time now 2017-Mar-27 06:48 UTC.
Position N 37°55' E 122°13'.

Length 272 m; draft 8.3 m.

Type: Ship. MMSI: 247094800.

Date/timePositionNaut miles runAvg speedWind from/ knotsBaromVisibWave heightAir tempDewpointWater temp
2017-Mar-26 03:25N 37°55' E 122°13'1213.6
2017-Mar-26 02:33N 38°02' E 122°01'1512.8
2017-Mar-26 01:22N 38°08' E 121°43'1113.3
2017-Mar-26 00:33N 38°13' E 121°31'1413.6
2017-Mar-25 23:31N 38°21' E 121°16'2013.6
2017-Mar-25 22:05N 38°32' E 120°56'611.8
2017-Mar-25 21:33N 38°34' E 120°48'2713.3
2017-Mar-25 19:29N 38°38' E 120°13'51 1.5
2017-Mar-24 10:14N 38°27' E 121°17'  
2017-Mar-20 23:33N 37°58' E 122°08'2121.3
2017-Mar-20 22:33N 38°09' E 121°45'2120.9
2017-Mar-20 21:34N 38°20' E 121°22'1919.1
2017-Mar-20 20:33N 38°29' E 121°01'1212.5
2017-Mar-20 19:33N 38°33' E 120°45'1716.7
2017-Mar-20 18:33N 38°35' E 120°24'2220.1
2017-Mar-20 17:27N 38°37' E 119°56'11 0.5
2017-Mar-19 18:14N 38°42' E 120°08'1518.2
2017-Mar-19 17:26N 38°39' E 120°27'1914.9
2017-Mar-19 16:11N 38°38' E 120°51'2414.7
2017-Mar-19 14:33N 38°27' E 121°18'2119.2
2017-Mar-19 13:27N 38°16' E 121°41'  
Track history (hours):
 
Tides and Currents Weather Stations Pressure Air Temp Water Temp Dewpoint Dewpoint Depression Visibility Wind Speed Wind Dir Waves Ship Positions

Costa Fortuna

Last reported at 2017-Mar-26 03:25 UTC. Time now 2017-Mar-27 06:48 UTC.
Position N 37°55' E 122°13'.

Length 272 m; draft 8.3 m.

Type: Ship. MMSI: 247094800.

Date/timePositionNaut miles runAvg speedWind from/ knotsBaromVisibWave heightAir tempDewpointWater temp
2017-Mar-26 03:25N 37°55' E 122°13'1213.6
2017-Mar-26 02:33N 38°02' E 122°01'1512.8
2017-Mar-26 01:22N 38°08' E 121°43'1113.3
2017-Mar-26 00:33N 38°13' E 121°31'1413.6
2017-Mar-25 23:31N 38°21' E 121°16'2013.6
2017-Mar-25 22:05N 38°32' E 120°56'611.8
2017-Mar-25 21:33N 38°34' E 120°48'2713.3
2017-Mar-25 19:29N 38°38' E 120°13'51 1.5
2017-Mar-24 10:14N 38°27' E 121°17'  
2017-Mar-20 23:33N 37°58' E 122°08'2121.3
2017-Mar-20 22:33N 38°09' E 121°45'2120.9
2017-Mar-20 21:34N 38°20' E 121°22'1919.1
2017-Mar-20 20:33N 38°29' E 121°01'1212.5
2017-Mar-20 19:33N 38°33' E 120°45'1716.7
2017-Mar-20 18:33N 38°35' E 120°24'2220.1
2017-Mar-20 17:27N 38°37' E 119°56'11 0.5
2017-Mar-19 18:14N 38°42' E 120°08'1518.2
2017-Mar-19 17:26N 38°39' E 120°27'1914.9
2017-Mar-19 16:11N 38°38' E 120°51'2414.7
2017-Mar-19 14:33N 38°27' E 121°18'2119.2
2017-Mar-19 13:27N 38°16' E 121°41'  

Dump ship's entire track history